Date,TemperatureHighF,TemperatureAvgF,TemperatureLowF,DewpointHighF,DewpointAvgF,DewpointLowF,HumidityHigh,HumidityAvg,HumidityLow,PressureMaxIn,PressureMinIn,WindSpeedMaxMPH,WindSpeedAvgMPH,GustSpeedMaxMPH,PrecipitationSumIn
2013-10-1,80,69,60,66,63,59,96,83,59,29.99,29.90,13,2,0,0.00
2013-10-2,76,68,64,69,66,63,97,92,78,30.05,29.95,8,0,0,0.01
2013-10-3,84,71,65,70,66,63,96,85,59,29.96,29.84,12,1,0,0.44
2013-10-4,86,74,65,71,67,63,93,81,58,29.95,29.88,11,2,0,0.00
2013-10-5,80,70,66,72,68,65,96,92,71,29.93,29.75,16,2,0,0.90
2013-10-6,67,56,48,66,48,40,96,77,48,29.79,29.68,13,1,0,0.22
2013-10-7,68,54,43,50,46,42,94,76,47,30.09,29.78,11,1,0,0.02
2013-10-8,75,60,47,52,49,45,91,68,41,30.20,30.09,3,0,0,0.00
2013-10-9,74,58,48,50,47,44,86,68,41,30.21,30.09,7,1,0,0.00
2013-10-10,76,63,50,58,53,47,90,72,50,30.15,30.01,8,0,0,0.00
2013-10-11,77,65,52,57,54,50,91,69,47,30.06,29.94,12,1,0,0.00
2013-10-12,76,64,55,64,57,49,86,76,60,30.14,29.96,10,1,0,0.00
2013-10-13,68,56,43,48,41,35,92,61,30,30.36,30.14,7,0,0,0.00
2013-10-14,68,54,39,46,42,36,93,67,38,30.36,30.12,9,0,0,0.00
2013-10-15,65,59,52,62,54,44,95,86,74,30.11,29.82,15,3,0,0.04
2013-10-16,56,50,43,53,45,41,92,82,71,29.96,29.86,13,1,0,0.01
2013-10-17,57,48,44,47,44,39,94,84,60,29.95,29.85,12,0,0,0.07
2013-10-18,54,47,42,47,42,39,90,81,70,29.98,29.88,9,1,0,0.00
2013-10-19,55,47,41,43,39,36,94,75,50,29.95,29.84,11,2,0,0.23
2013-10-20,67,54,40,46,42,36,88,66,44,29.92,29.78,22,5,0,0.00
2013-10-21,55,47,33,45,38,26,87,72,53,30.02,29.84,11,2,0,0.00
2013-10-22,48,37,31,39,32,25,94,81,58,30.02,29.88,9,1,0,0.57
2013-10-23,44,38,32,36,33,30,95,84,62,30.07,29.89,9,1,0,0.01
2013-10-24,42,38,31,35,30,25,92,74,54,30.33,30.05,17,2,0,0.02
2013-10-25,51,38,26,32,28,23,87,69,46,30.45,30.18,10,1,0,0.00
2013-10-26,56,45,37,40,33,28,77,64,44,30.18,29.89,23,5,0,0.00
2013-10-27,56,43,29,36,31,27,90,66,41,30.11,30.01,10,1,0,0.00
2013-10-28,61,47,34,42,34,28,87,64,39,30.30,30.07,7,0,0,0.00
2013-10-29,57,48,38,48,42,35,92,82,67,30.32,30.14,6,1,0,0.03
2013-10-30,65,55,50,63,54,48,97,95,91,30.14,29.83,11,4,0,0.08
2013-10-31,65,60,49,62,58,47,96,94,89,29.82,29.26,18,6,0,1.59